Time;durP1;ratioP1;P1;durP2;ratioP2;P2;SDS_P1;SDS_P2;PMS_P1;PMS_P2;Temp;Humidity;BMP_temperature;BMP_pressure;BME280_temperature;BME280_humidity;BME280_pressure;Samples;Min_cycle;Max_cycle;Signal;HPM_P1;HPM_P2
2021/08/27 00:02:05;;;;;;;6.80;4.07;;;12.00;99.90;;;;;;5056134;28;20209;-87
2021/08/27 00:04:32;;;;;;;6.50;4.07;;;12.00;99.90;;;;;;5055140;28;20208;-87
2021/08/27 00:06:58;;;;;;;8.17;4.23;;;12.00;99.90;;;;;;5055424;28;20193;-87
2021/08/27 00:09:24;;;;;;;5.47;4.27;;;11.90;99.90;;;;;;5055511;28;20212;-87
2021/08/27 00:11:51;;;;;;;9.23;4.60;;;11.90;99.90;;;;;;5056280;28;20666;-87
2021/08/27 00:14:17;;;;;;;6.57;4.13;;;11.90;99.90;;;;;;5055091;28;20190;-87
2021/08/27 00:16:43;;;;;;;7.10;4.17;;;12.00;99.90;;;;;;5055248;28;20314;-87
2021/08/27 00:19:08;;;;;;;8.80;4.50;;;12.00;99.90;;;;;;5055391;28;20198;-87
2021/08/27 00:21:34;;;;;;;6.57;4.60;;;12.00;99.90;;;;;;5055180;28;20189;-87
2021/08/27 00:24:01;;;;;;;8.13;4.30;;;12.00;99.90;;;;;;5054960;28;20182;-87
2021/08/27 00:26:27;;;;;;;6.57;4.53;;;12.00;99.90;;;;;;5054854;28;20703;-87
2021/08/27 00:28:53;;;;;;;8.67;4.90;;;12.00;99.90;;;;;;5056316;28;20284;-87
2021/08/27 00:31:18;;;;;;;8.77;4.63;;;11.90;99.90;;;;;;5054735;28;20632;-87
2021/08/27 00:33:44;;;;;;;8.67;4.47;;;11.90;99.90;;;;;;5055963;28;20231;-87
2021/08/27 00:36:10;;;;;;;8.93;4.90;;;11.90;99.90;;;;;;5056388;28;20545;-87
2021/08/27 00:38:36;;;;;;;7.20;4.23;;;11.90;99.90;;;;;;5054713;28;20204;-87
2021/08/27 00:41:01;;;;;;;6.03;4.50;;;11.90;99.90;;;;;;5055110;28;20177;-88
2021/08/27 00:43:27;;;;;;;6.57;4.57;;;11.90;99.90;;;;;;5054842;28;20592;-87
2021/08/27 00:45:53;;;;;;;6.40;4.63;;;11.80;99.90;;;;;;5055975;28;20177;-87
2021/08/27 00:48:19;;;;;;;10.23;4.70;;;11.80;99.90;;;;;;5054371;28;20646;-87
2021/08/27 00:50:48;;;;;;;6.20;4.20;;;11.80;99.90;;;;;;5055921;28;20192;-88
2021/08/27 00:53:15;;;;;;;8.83;5.17;;;11.70;99.90;;;;;;5054503;28;20189;-87
2021/08/27 00:55:43;;;;;;;7.23;4.57;;;11.80;99.90;;;;;;5055017;28;20192;-87
2021/08/27 00:58:09;;;;;;;7.83;4.33;;;11.80;99.90;;;;;;5055353;28;20232;-87
2021/08/27 01:00:35;;;;;;;9.53;5.10;;;11.80;99.90;;;;;;5054135;28;20632;-88
2021/08/27 01:03:03;;;;;;;7.07;4.67;;;11.70;99.90;;;;;;5055342;28;20177;-87
2021/08/27 01:05:32;;;;;;;8.27;4.43;;;11.80;99.90;;;;;;5054354;28;20191;-88
2021/08/27 01:08:29;;;;;;;10.30;5.00;;;11.80;99.90;;;;;;5055434;28;20542;-87
2021/08/27 01:11:26;;;;;;;6.10;4.67;;;11.70;99.90;;;;;;5054451;28;20237;-87
2021/08/27 01:13:57;;;;;;;8.53;4.67;;;11.70;99.90;;;;;;5052989;28;20281;-87
2021/08/27 01:16:31;;;;;;;7.37;4.40;;;11.70;99.90;;;;;;5053989;28;20285;-87
2021/08/27 01:19:43;;;;;;;6.17;4.20;;;11.80;99.90;;;;;;5055282;28;20196;-87
2021/08/27 01:22:27;;;;;;;8.90;5.13;;;11.80;99.90;;;;;;5053874;28;20174;-87
2021/08/27 01:24:55;;;;;;;6.47;4.37;;;11.80;99.90;;;;;;5054279;28;20169;-87
2021/08/27 01:27:24;;;;;;;6.80;4.13;;;11.80;99.90;;;;;;5055394;28;20197;-88
2021/08/27 01:30:33;;;;;;;9.17;4.67;;;11.70;99.90;;;;;;5053597;28;20262;-87
2021/08/27 01:33:10;;;;;;;7.20;4.23;;;11.60;99.90;;;;;;4996762;28;20180;-87
2021/08/27 01:35:37;;;;;;;6.17;4.43;;;11.60;99.90;;;;;;5049618;28;20189;-87
2021/08/27 01:38:07;;;;;;;7.30;4.40;;;11.70;99.90;;;;;;5055078;28;20744;-88
2021/08/27 01:40:34;;;;;;;6.97;5.10;;;11.70;99.90;;;;;;5053716;28;20198;-87
2021/08/27 01:43:03;;;;;;;6.60;4.27;;;11.70;99.90;;;;;;5054405;28;20181;-87
2021/08/27 01:45:31;;;;;;;8.50;4.77;;;11.70;99.90;;;;;;5053914;28;20177;-87
2021/08/27 01:47:59;;;;;;;9.50;4.93;;;11.60;99.90;;;;;;5053942;28;20284;-88
2021/08/27 01:50:25;;;;;;;8.83;5.27;;;11.60;99.90;;;;;;5054010;28;20663;-87
2021/08/27 01:52:52;;;;;;;6.77;4.37;;;11.60;99.90;;;;;;5053597;28;20307;-88
2021/08/27 01:55:20;;;;;;;6.80;4.90;;;11.60;99.90;;;;;;5055627;28;20182;-87
2021/08/27 01:57:46;;;;;;;9.77;4.83;;;11.60;99.90;;;;;;5054444;28;20217;-87
2021/08/27 02:00:18;;;;;;;7.63;5.20;;;11.50;99.90;;;;;;5054936;28;20200;-87
2021/08/27 02:02:44;;;;;;;7.63;4.20;;;11.50;99.90;;;;;;5054843;28;20170;-88
2021/08/27 02:05:11;;;;;;;7.73;4.83;;;11.40;99.90;;;;;;5058450;28;20180;-86
2021/08/27 02:07:37;;;;;;;7.90;4.77;;;11.40;99.90;;;;;;5058254;28;20655;-87
2021/08/27 02:10:05;;;;;;;7.17;5.07;;;11.40;99.90;;;;;;5054973;28;20169;-88
2021/08/27 02:12:30;;;;;;;10.57;5.00;;;11.40;99.90;;;;;;5055053;28;20182;-88
2021/08/27 02:14:57;;;;;;;11.13;5.60;;;11.40;99.90;;;;;;5053737;28;20176;-87
2021/08/27 02:17:26;;;;;;;8.17;5.43;;;11.40;99.90;;;;;;5053664;28;20646;-87
2021/08/27 02:19:53;;;;;;;11.33;5.80;;;11.40;99.90;;;;;;5055847;28;20176;-88
2021/08/27 02:22:21;;;;;;;10.60;5.67;;;11.40;99.90;;;;;;5054563;28;20175;-88
2021/08/27 02:24:58;;;;;;;11.03;5.67;;;11.50;99.90;;;;;;5054195;28;20638;-87
2021/08/27 02:27:24;;;;;;;9.73;5.60;;;11.60;99.90;;;;;;5054224;28;20223;-87
2021/08/27 02:29:53;;;;;;;8.73;5.87;;;11.50;99.90;;;;;;5056137;28;20225;-87
2021/08/27 02:32:20;;;;;;;7.37;5.23;;;11.50;99.90;;;;;;5055141;28;20175;-88
2021/08/27 02:34:48;;;;;;;8.20;5.47;;;11.50;99.90;;;;;;5053593;28;20181;-88
2021/08/27 02:37:17;;;;;;;7.20;4.87;;;11.50;99.90;;;;;;5053115;28;20209;-87
2021/08/27 02:39:43;;;;;;;9.67;5.30;;;11.50;99.90;;;;;;5053289;28;20202;-87
2021/08/27 02:42:09;;;;;;;8.50;5.27;;;11.60;99.90;;;;;;5053445;28;20250;-87
2021/08/27 02:44:35;;;;;;;9.13;5.93;;;11.50;99.90;;;;;;5053361;28;20184;-88
2021/08/27 02:47:02;;;;;;;11.37;6.13;;;11.50;99.90;;;;;;5054532;28;20188;-87
2021/08/27 02:49:28;;;;;;;8.80;6.07;;;11.50;99.90;;;;;;5053486;28;20715;-87
2021/08/27 02:52:16;;;;;;;10.00;6.30;;;11.40;99.90;;;;;;5053285;28;20286;-87
2021/08/27 02:55:05;;;;;;;9.53;5.47;;;11.40;99.90;;;;;;5055861;28;20185;-87
2021/08/27 02:57:50;;;;;;;10.87;5.83;;;11.30;99.90;;;;;;5057211;28;20209;-88
2021/08/27 03:00:38;;;;;;;7.60;5.57;;;11.40;99.90;;;;;;5056679;28;20174;-87
2021/08/27 03:03:05;;;;;;;7.27;5.70;;;11.30;99.90;;;;;;5057842;28;20158;-87
2021/08/27 03:05:54;;;;;;;8.27;5.43;;;11.30;99.90;;;;;;5056830;28;20627;-88
2021/08/27 03:08:24;;;;;;;7.77;5.53;;;11.30;99.90;;;;;;5056627;28;20197;-88
2021/08/27 03:11:01;;;;;;;10.03;5.97;;;11.20;99.90;;;;;;5056762;28;20185;-87
2021/08/27 03:13:41;;;;;;;10.80;5.83;;;11.20;99.90;;;;;;5056327;28;20264;-88
2021/08/27 03:16:11;;;;;;;11.60;5.53;;;11.20;99.90;;;;;;5056917;28;20320;-87
2021/08/27 03:19:08;;;;;;;9.27;6.20;;;11.20;99.90;;;;;;5056278;28;20193;-87
2021/08/27 03:21:57;;;;;;;8.97;5.60;;;11.20;99.90;;;;;;5055820;28;20189;-87
2021/08/27 03:24:31;;;;;;;10.30;5.93;;;11.20;99.90;;;;;;5057497;28;20162;-87
2021/08/27 03:27:04;;;;;;;9.07;5.00;;;11.20;99.90;;;;;;5056417;28;20513;-87
2021/08/27 03:29:44;;;;;;;9.97;5.30;;;11.20;99.90;;;;;;5057900;28;20171;-87
2021/08/27 03:32:12;;;;;;;8.53;5.53;;;11.20;99.90;;;;;;5056279;28;20187;-87
2021/08/27 03:34:41;;;;;;;8.77;5.30;;;11.20;99.90;;;;;;5057137;28;20181;-88
2021/08/27 03:37:08;;;;;;;8.47;5.63;;;11.20;99.90;;;;;;5057368;28;20201;-87
2021/08/27 03:39:36;;;;;;;8.17;5.40;;;11.20;99.90;;;;;;5056162;28;20308;-87
2021/08/27 03:42:03;;;;;;;10.13;5.40;;;11.30;99.90;;;;;;5056438;28;20187;-87
2021/08/27 03:44:32;;;;;;;10.53;5.80;;;11.20;99.90;;;;;;5056690;28;20239;-88
2021/08/27 03:46:58;;;;;;;10.93;5.70;;;11.30;99.90;;;;;;5059531;28;20272;-87
2021/08/27 03:49:24;;;;;;;11.63;6.10;;;11.30;99.90;;;;;;5058885;28;20187;-88
2021/08/27 03:51:50;;;;;;;9.33;6.47;;;11.40;99.90;;;;;;5058965;28;20185;-87
2021/08/27 03:54:18;;;;;;;8.77;5.63;;;11.40;99.90;;;;;;5060452;28;20191;-88
2021/08/27 03:56:44;;;;;;;10.37;5.77;;;11.40;99.90;;;;;;5059387;28;20261;-88
2021/08/27 03:59:11;;;;;;;7.37;4.77;;;11.40;99.90;;;;;;5062676;28;20193;-87
2021/08/27 04:01:38;;;;;;;7.97;5.40;;;11.50;99.90;;;;;;5071087;28;20184;-87
2021/08/27 04:04:05;;;;;;;7.97;5.00;;;11.50;99.90;;;;;;5068965;28;20206;-88
2021/08/27 04:06:31;;;;;;;8.40;5.07;;;11.50;99.90;;;;;;5066121;28;20195;-88
2021/08/27 04:08:57;;;;;;;7.37;4.90;;;11.50;99.90;;;;;;5068382;28;20201;-88
2021/08/27 04:11:22;;;;;;;7.17;5.13;;;11.50;99.90;;;;;;5063717;28;20181;-88
2021/08/27 04:13:48;;;;;;;10.23;5.37;;;11.50;99.90;;;;;;5056381;28;20183;-88
2021/08/27 04:16:14;;;;;;;12.07;5.40;;;11.60;99.90;;;;;;5056281;28;20234;-88
2021/08/27 04:18:39;;;;;;;8.63;5.30;;;11.60;99.90;;;;;;5056169;28;20562;-88
2021/08/27 04:21:05;;;;;;;9.63;4.80;;;11.60;99.90;;;;;;5057760;28;20182;-88
2021/08/27 04:23:31;;;;;;;9.30;4.90;;;11.60;99.90;;;;;;5057497;28;20186;-88
2021/08/27 04:25:57;;;;;;;8.67;5.33;;;11.60;99.90;;;;;;5056377;28;20181;-88
2021/08/27 04:28:22;;;;;;;8.57;5.07;;;11.60;99.90;;;;;;5056507;28;20212;-88
2021/08/27 04:30:48;;;;;;;7.23;4.50;;;11.60;99.90;;;;;;5057491;28;20654;-88
2021/08/27 04:33:14;;;;;;;7.90;5.10;;;11.70;99.90;;;;;;5055958;28;20221;-88
2021/08/27 04:35:40;;;;;;;8.47;5.43;;;11.70;99.90;;;;;;5057248;28;20223;-88
2021/08/27 04:38:05;;;;;;;9.83;5.30;;;11.70;99.90;;;;;;5057199;28;20205;-88
2021/08/27 04:40:32;;;;;;;10.00;5.50;;;11.70;99.90;;;;;;5055816;28;20557;-88
2021/08/27 04:42:58;;;;;;;9.67;4.80;;;11.70;99.90;;;;;;5055953;28;20565;-88
2021/08/27 04:45:23;;;;;;;11.07;4.70;;;11.70;99.90;;;;;;5056127;28;20228;-88
2021/08/27 04:47:49;;;;;;;7.50;4.50;;;11.70;99.90;;;;;;5055967;28;20205;-88
2021/08/27 04:50:15;;;;;;;9.13;5.17;;;11.70;99.90;;;;;;5055565;28;20179;-88
2021/08/27 04:52:41;;;;;;;10.30;5.73;;;11.70;99.90;;;;;;5055474;28;20181;-89
2021/08/27 04:55:07;;;;;;;8.73;4.90;;;11.70;99.90;;;;;;5055547;28;20177;-88
2021/08/27 04:57:36;;;;;;;8.20;5.73;;;11.70;99.90;;;;;;5055576;28;20213;-89
2021/08/27 05:00:02;;;;;;;11.17;5.43;;;11.80;99.90;;;;;;5055352;28;20178;-88
2021/08/27 05:02:28;;;;;;;10.60;6.03;;;11.70;99.90;;;;;;5054514;28;20205;-88
2021/08/27 05:04:53;;;;;;;10.07;6.60;;;11.70;99.90;;;;;;5055571;28;20178;-87
2021/08/27 05:07:19;;;;;;;12.83;6.43;;;11.70;99.90;;;;;;5056947;28;20193;-88
2021/08/27 05:09:45;;;;;;;10.17;6.07;;;11.70;99.90;;;;;;5057349;28;20182;-88
2021/08/27 05:12:10;;;;;;;10.80;5.93;;;11.70;99.90;;;;;;5057326;28;20537;-88
2021/08/27 05:14:36;;;;;;;9.37;5.93;;;11.80;99.90;;;;;;5064578;28;20161;-88
2021/08/27 05:17:02;;;;;;;10.63;6.00;;;11.80;99.90;;;;;;5056661;28;20217;-88
2021/08/27 05:19:28;;;;;;;7.83;5.23;;;11.80;99.90;;;;;;5054577;28;20204;-88
2021/08/27 05:21:54;;;;;;;9.27;6.00;;;11.80;99.90;;;;;;5054472;28;20633;-88
2021/08/27 05:24:19;;;;;;;8.83;5.53;;;11.80;99.90;;;;;;5054938;28;20172;-88
2021/08/27 05:26:45;;;;;;;9.87;5.93;;;11.80;99.90;;;;;;5056316;28;20541;-87
2021/08/27 05:29:11;;;;;;;12.87;7.23;;;11.80;99.90;;;;;;5055390;28;20201;-88
2021/08/27 05:31:37;;;;;;;12.13;6.03;;;11.80;99.90;;;;;;5055138;28;20177;-89
2021/08/27 05:34:06;;;;;;;11.57;6.50;;;11.80;99.90;;;;;;5055200;28;20179;-88
2021/08/27 05:36:32;;;;;;;9.73;5.90;;;11.80;99.90;;;;;;5055126;28;20208;-88
2021/08/27 05:38:58;;;;;;;9.27;5.67;;;11.80;99.90;;;;;;5054577;28;20209;-88
2021/08/27 05:41:24;;;;;;;12.87;6.17;;;11.80;99.90;;;;;;5055036;28;20251;-88
2021/08/27 05:43:49;;;;;;;8.47;6.23;;;11.90;99.90;;;;;;5055791;28;20169;-88
2021/08/27 05:46:15;;;;;;;8.93;5.60;;;11.80;99.90;;;;;;5054594;28;20228;-88
2021/08/27 05:48:40;;;;;;;11.40;5.90;;;11.90;99.90;;;;;;5055636;28;20190;-88
2021/08/27 05:51:06;;;;;;;11.03;5.97;;;11.90;99.90;;;;;;5055575;28;20174;-88
2021/08/27 05:53:32;;;;;;;13.60;6.23;;;11.90;99.90;;;;;;5055770;28;20197;-88
2021/08/27 05:55:58;;;;;;;10.33;5.50;;;11.90;99.90;;;;;;5055655;28;20174;-88
2021/08/27 05:58:23;;;;;;;11.00;5.77;;;12.00;99.90;;;;;;5054618;28;20205;-88
2021/08/27 06:00:50;;;;;;;9.23;5.93;;;12.00;99.90;;;;;;5054389;28;20180;-88
2021/08/27 06:03:16;;;;;;;10.20;6.10;;;12.10;99.90;;;;;;5055839;28;20185;-88
2021/08/27 06:05:42;;;;;;;12.40;5.80;;;12.00;99.90;;;;;;5054134;28;20635;-89
2021/08/27 06:08:07;;;;;;;13.73;6.70;;;12.00;99.90;;;;;;5054127;28;20539;-88
2021/08/27 06:10:33;;;;;;;8.07;5.43;;;12.00;99.90;;;;;;5054554;28;20177;-88
2021/08/27 06:12:59;;;;;;;8.87;6.00;;;12.10;99.90;;;;;;5054194;28;20177;-88
2021/08/27 06:15:24;;;;;;;7.60;5.70;;;12.10;99.90;;;;;;5054230;28;20191;-88
2021/08/27 06:17:50;;;;;;;11.67;6.33;;;12.10;99.90;;;;;;5054207;28;20240;-88
2021/08/27 06:20:16;;;;;;;9.13;5.90;;;12.10;99.90;;;;;;5054388;28;20174;-88
2021/08/27 06:22:41;;;;;;;9.50;6.03;;;12.10;99.90;;;;;;5053934;28;20176;-88
2021/08/27 06:25:08;;;;;;;10.83;6.33;;;12.00;99.90;;;;;;5054116;28;20271;-88
2021/08/27 06:27:33;;;;;;;10.37;7.03;;;12.10;99.90;;;;;;5054279;28;20225;-88
2021/08/27 06:30:00;;;;;;;10.07;5.90;;;12.10;99.90;;;;;;5059241;28;20177;-88
2021/08/27 06:32:27;;;;;;;9.70;6.33;;;12.10;99.90;;;;;;5058518;28;20183;-89
2021/08/27 06:34:55;;;;;;;9.83;6.53;;;12.10;99.90;;;;;;5060877;28;20180;-89
2021/08/27 06:37:21;;;;;;;11.73;7.00;;;12.10;99.90;;;;;;5059776;28;20275;-89
2021/08/27 06:39:47;;;;;;;10.27;6.50;;;12.20;99.90;;;;;;5059080;28;20196;-89
2021/08/27 06:42:13;;;;;;;11.43;7.60;;;12.20;99.90;;;;;;5060125;28;20170;-89
2021/08/27 06:44:38;;;;;;;17.37;7.63;;;12.20;99.90;;;;;;5058796;28;20560;-89
2021/08/27 06:47:04;;;;;;;9.87;6.87;;;12.20;99.90;;;;;;5059054;28;20665;-89
2021/08/27 06:49:30;;;;;;;9.97;6.90;;;12.20;99.90;;;;;;5059386;28;20178;-89
2021/08/27 06:51:56;;;;;;;12.40;7.10;;;12.10;99.90;;;;;;5058818;28;20188;-89
2021/08/27 06:54:21;;;;;;;11.00;7.20;;;12.20;99.90;;;;;;5058972;28;20177;-89
2021/08/27 06:56:47;;;;;;;12.67;7.07;;;12.10;99.90;;;;;;5058869;28;20211;-89
2021/08/27 06:59:12;;;;;;;10.60;7.67;;;12.20;99.90;;;;;;5059130;28;20292;-89
2021/08/27 07:01:38;;;;;;;9.53;7.80;;;12.20;99.90;;;;;;5058693;28;20176;-89
2021/08/27 07:04:04;;;;;;;11.67;7.67;;;12.20;99.90;;;;;;5058736;28;20173;-89
2021/08/27 07:06:29;;;;;;;10.87;7.70;;;12.20;99.90;;;;;;5059148;28;20635;-89
2021/08/27 07:08:55;;;;;;;9.20;7.27;;;12.10;99.90;;;;;;5060356;28;20279;-88
2021/08/27 07:11:21;;;;;;;13.57;7.93;;;12.10;99.90;;;;;;5058946;28;20268;-89
2021/08/27 07:13:46;;;;;;;10.10;7.30;;;12.10;99.90;;;;;;5058640;28;20177;-89
2021/08/27 07:16:13;;;;;;;12.57;7.53;;;12.10;99.90;;;;;;5058967;28;20181;-89
2021/08/27 07:18:42;;;;;;;11.40;7.20;;;12.20;99.90;;;;;;5058743;28;20269;-89
2021/08/27 07:21:08;;;;;;;11.70;7.33;;;12.20;99.90;;;;;;5058310;28;20177;-89
2021/08/27 07:23:34;;;;;;;11.07;7.07;;;12.30;99.90;;;;;;5057911;28;20184;-89
2021/08/27 07:26:00;;;;;;;16.03;7.80;;;12.30;99.90;;;;;;5059376;28;20172;-89
2021/08/27 07:28:26;;;;;;;12.70;8.20;;;12.30;99.90;;;;;;5057644;28;20205;-90
2021/08/27 07:30:51;;;;;;;13.00;8.30;;;12.30;99.90;;;;;;5058034;28;20188;-90
2021/08/27 07:33:17;;;;;;;15.47;9.17;;;12.40;99.90;;;;;;5058275;28;20192;-89
2021/08/27 07:35:42;;;;;;;11.83;7.63;;;12.40;99.90;;;;;;5058236;28;20182;-90
2021/08/27 07:38:08;;;;;;;12.17;8.80;;;12.50;99.90;;;;;;5057677;28;20217;-90
2021/08/27 07:40:34;;;;;;;11.37;7.90;;;12.60;99.90;;;;;;5060107;28;20269;-90
2021/08/27 07:43:01;;;;;;;10.40;8.30;;;12.60;99.90;;;;;;5058226;28;20199;-90
2021/08/27 07:45:27;;;;;;;11.77;7.80;;;12.60;99.90;;;;;;5058347;28;20177;-90
2021/08/27 07:47:52;;;;;;;13.90;8.10;;;12.60;99.90;;;;;;5059678;28;20290;-90
2021/08/27 07:50:19;;;;;;;10.43;8.10;;;12.70;99.90;;;;;;5059571;28;20178;-89
2021/08/27 07:52:44;;;;;;;9.67;7.87;;;12.70;99.90;;;;;;5059280;28;20166;-89
2021/08/27 07:55:11;;;;;;;15.33;7.97;;;12.70;99.90;;;;;;5058943;28;20539;-89
2021/08/27 07:57:41;;;;;;;10.97;7.80;;;12.70;99.90;;;;;;5058719;28;20208;-89
2021/08/27 08:00:07;;;;;;;10.53;8.03;;;12.80;99.90;;;;;;5057587;28;20173;-89
2021/08/27 08:02:33;;;;;;;9.07;6.87;;;12.80;99.90;;;;;;5059690;28;20169;-89
2021/08/27 08:04:59;;;;;;;8.17;6.37;;;12.80;99.90;;;;;;5060354;28;20187;-89
2021/08/27 08:07:25;;;;;;;7.20;5.50;;;12.80;99.90;;;;;;5063840;28;20201;-89
2021/08/27 08:09:50;;;;;;;11.40;5.57;;;12.80;99.90;;;;;;5070540;28;20181;-89
2021/08/27 08:12:16;;;;;;;6.77;4.27;;;12.80;99.90;;;;;;5067888;28;20181;-90
2021/08/27 08:14:42;;;;;;;5.97;5.07;;;12.80;99.90;;;;;;5066323;28;20185;-89
2021/08/27 08:17:09;;;;;;;5.73;4.07;;;12.80;99.90;;;;;;5057311;28;20209;-88
2021/08/27 08:19:34;;;;;;;5.50;3.40;;;12.80;99.90;;;;;;5057127;28;20182;-89
2021/08/27 08:22:00;;;;;;;4.47;3.70;;;12.70;99.90;;;;;;5057233;28;20284;-89
2021/08/27 08:24:26;;;;;;;3.47;2.90;;;12.70;99.90;;;;;;5058001;28;20199;-89
2021/08/27 08:26:52;;;;;;;5.00;2.83;;;12.70;99.90;;;;;;5058427;28;20181;-89
2021/08/27 08:29:17;;;;;;;4.27;3.20;;;12.60;99.90;;;;;;5056745;28;20224;-88
2021/08/27 08:31:43;;;;;;;3.77;2.97;;;12.50;99.90;;;;;;5057109;28;20331;-89
2021/08/27 08:34:09;;;;;;;3.13;2.60;;;12.60;99.90;;;;;;5058043;28;20193;-88
2021/08/27 08:36:34;;;;;;;4.80;3.93;;;12.50;99.90;;;;;;5057896;28;20234;-88
2021/08/27 08:39:01;;;;;;;4.83;3.50;;;12.60;99.90;;;;;;5056733;28;20213;-88
2021/08/27 08:41:27;;;;;;;3.83;3.40;;;12.70;99.90;;;;;;5057962;28;20315;-88
2021/08/27 08:43:53;;;;;;;5.00;3.47;;;12.80;99.90;;;;;;5057390;28;20170;-88
2021/08/27 08:46:21;;;;;;;4.50;3.20;;;12.90;99.90;;;;;;5057618;28;20173;-88
2021/08/27 08:48:48;;;;;;;3.77;2.93;;;13.00;99.90;;;;;;5056393;28;20200;-88
2021/08/27 08:51:14;;;;;;;3.93;3.10;;;13.00;99.90;;;;;;5055963;28;20188;-88
2021/08/27 08:53:45;;;;;;;4.63;3.73;;;13.00;99.90;;;;;;5056110;28;20288;-88
2021/08/27 08:56:11;;;;;;;6.20;3.67;;;13.00;99.90;;;;;;5056003;28;20172;-88
2021/08/27 08:58:37;;;;;;;4.80;3.80;;;13.00;99.90;;;;;;5056074;28;20619;-88
2021/08/27 09:01:03;;;;;;;5.23;3.80;;;13.00;99.90;;;;;;5056009;28;20181;-88
2021/08/27 09:03:30;;;;;;;4.70;3.90;;;12.90;99.90;;;;;;5055972;28;20181;-88
2021/08/27 09:05:55;;;;;;;9.03;4.83;;;12.90;99.90;;;;;;5057126;28;20303;-88
2021/08/27 09:08:37;;;;;;;6.37;4.80;;;12.90;99.90;;;;;;5056078;28;20217;-88
2021/08/27 09:11:17;;;;;;;6.27;4.50;;;12.80;99.90;;;;;;5057211;28;20188;-88
2021/08/27 09:13:44;;;;;;;5.47;4.47;;;12.80;99.90;;;;;;5055964;28;20174;-88
2021/08/27 09:16:10;;;;;;;6.40;4.43;;;12.90;99.90;;;;;;5056040;28;20271;-88
2021/08/27 09:18:41;;;;;;;5.33;4.40;;;12.90;99.90;;;;;;5056329;28;20327;-88
2021/08/27 09:21:26;;;;;;;5.63;4.17;;;13.00;99.90;;;;;;5056804;28;20158;-88
2021/08/27 09:24:25;;;;;;;6.57;4.13;;;13.20;99.90;;;;;;5056861;28;20166;-88
2021/08/27 09:26:53;;;;;;;6.97;4.10;;;13.40;99.90;;;;;;5056057;28;20178;-88
2021/08/27 09:29:39;;;;;;;4.70;3.50;;;13.60;99.90;;;;;;5057199;28;20676;-88
2021/08/27 09:32:23;;;;;;;4.67;3.60;;;13.80;99.90;;;;;;5056250;28;20180;-88
2021/08/27 09:35:18;;;;;;;6.27;3.40;;;14.00;99.90;;;;;;5056721;28;20632;-88
2021/08/27 09:37:52;;;;;;;4.17;3.03;;;14.00;99.90;;;;;;5053640;28;20241;-87
2021/08/27 09:40:20;;;;;;;5.87;3.50;;;13.90;99.90;;;;;;5056025;28;20194;-88
2021/08/27 09:42:51;;;;;;;3.43;3.00;;;13.80;99.90;;;;;;5055415;28;20178;-88
2021/08/27 09:45:44;;;;;;;3.20;2.90;;;13.70;99.90;;;;;;5056266;28;20173;-87
2021/08/27 09:48:13;;;;;;;2.43;1.80;;;13.50;99.90;;;;;;5056002;28;20565;-87
2021/08/27 09:50:41;;;;;;;1.20;1.10;;;13.20;99.90;;;;;;5056364;28;20184;-87
2021/08/27 09:53:12;;;;;;;1.70;1.10;;;13.00;99.90;;;;;;5055860;28;20196;-87
2021/08/27 09:55:55;;;;;;;1.83;0.87;;;12.80;99.90;;;;;;5056140;28;20260;-87
2021/08/27 09:58:21;;;;;;;1.40;1.10;;;12.60;99.90;;;;;;5055659;28;20258;-87
2021/08/27 10:01:06;;;;;;;1.27;1.00;;;12.50;99.90;;;;;;5054547;28;20260;-88
2021/08/27 10:03:32;;;;;;;1.93;1.00;;;12.40;99.90;;;;;;5053176;28;20319;-88
2021/08/27 10:05:58;;;;;;;1.10;0.90;;;12.40;99.90;;;;;;5055003;28;20201;-88
2021/08/27 10:08:28;;;;;;;2.20;1.07;;;12.30;99.90;;;;;;5053505;28;20748;-88
2021/08/27 10:10:56;;;;;;;1.47;1.00;;;12.20;99.90;;;;;;5053455;28;20181;-88
2021/08/27 10:13:23;;;;;;;1.70;1.17;;;12.10;99.90;;;;;;5053498;28;20201;-88
2021/08/27 10:15:50;;;;;;;1.63;1.40;;;12.10;99.90;;;;;;5055329;28;20657;-87
2021/08/27 10:18:16;;;;;;;1.30;1.20;;;12.00;99.90;;;;;;5054129;28;20201;-87
2021/08/27 10:20:44;;;;;;;2.13;1.30;;;12.00;99.90;;;;;;5056148;28;20200;-87
2021/08/27 10:23:16;;;;;;;1.97;1.57;;;12.10;99.90;;;;;;5055103;28;20524;-88
2021/08/27 10:25:42;;;;;;;5.77;1.53;;;12.10;99.90;;;;;;5054840;28;20196;-87
2021/08/27 10:28:09;;;;;;;3.00;1.27;;;12.20;99.90;;;;;;5054342;28;20205;-87
2021/08/27 10:30:52;;;;;;;1.80;1.27;;;12.20;99.90;;;;;;5055813;28;20166;-88
2021/08/27 10:33:42;;;;;;;1.73;1.30;;;12.20;99.90;;;;;;5054281;28;20181;-87
2021/08/27 10:36:20;;;;;;;2.07;1.40;;;12.40;99.90;;;;;;5054710;28;20269;-87
2021/08/27 10:38:48;;;;;;;1.80;1.40;;;12.40;99.90;;;;;;5054017;28;20220;-87
2021/08/27 10:41:28;;;;;;;1.07;0.97;;;12.50;99.90;;;;;;5055382;28;20174;-87
2021/08/27 10:43:56;;;;;;;1.87;1.20;;;12.60;99.90;;;;;;5055115;28;20197;-87
2021/08/27 10:46:23;;;;;;;1.83;1.40;;;12.80;99.90;;;;;;5053808;28;20192;-87
2021/08/27 10:48:54;;;;;;;1.90;1.40;;;13.10;99.90;;;;;;5053801;28;20721;-87
2021/08/27 10:51:40;;;;;;;1.87;1.40;;;13.30;99.90;;;;;;5054088;28;20170;-87
2021/08/27 10:54:07;;;;;;;2.47;1.40;;;13.40;99.90;;;;;;5054800;28;20208;-87
2021/08/27 10:56:52;;;;;;;1.57;1.27;;;13.40;99.90;;;;;;5053896;28;20181;-87
2021/08/27 10:59:23;;;;;;;1.50;1.33;;;13.40;99.90;;;;;;5053842;28;20201;-86
2021/08/27 11:01:58;;;;;;;3.17;1.67;;;13.40;99.90;;;;;;5054102;28;20178;-88
2021/08/27 11:04:27;;;;;;;2.03;1.80;;;13.50;99.90;;;;;;5054481;28;20272;-87
2021/08/27 11:06:53;;;;;;;2.93;1.90;;;13.70;99.90;;;;;;5055044;28;20221;-86
2021/08/27 11:09:24;;;;;;;3.43;2.00;;;14.00;99.90;;;;;;5056908;28;20194;-87
2021/08/27 11:12:09;;;;;;;3.57;2.50;;;14.30;99.90;;;;;;5060671;28;20189;-87
2021/08/27 11:14:36;;;;;;;5.13;2.80;;;14.70;99.90;;;;;;5060726;28;20213;-87
2021/08/27 11:17:06;;;;;;;6.07;3.00;;;15.80;99.90;;;;;;5063600;28;20293;-87
2021/08/27 11:19:58;;;;;;;5.03;2.67;;;16.80;99.90;;;;;;5058559;28;20181;-85
2021/08/27 11:22:30;;;;;;;3.80;2.93;;;17.60;99.90;;;;;;5059244;28;20168;-84
2021/08/27 11:25:07;;;;;;;4.17;2.70;;;18.10;99.90;;;;;;5058022;28;20183;-84
2021/08/27 11:27:37;;;;;;;5.00;3.00;;;17.90;99.90;;;;;;5057959;28;20209;-85
2021/08/27 11:30:27;;;;;;;2.67;2.43;;;17.40;99.90;;;;;;5058222;28;20187;-85
2021/08/27 11:32:54;;;;;;;2.63;2.43;;;16.80;99.90;;;;;;5059824;28;20537;-84
2021/08/27 11:35:20;;;;;;;2.80;2.53;;;16.30;99.90;;;;;;5059312;28;20235;-84
2021/08/27 11:37:53;;;;;;;5.47;3.20;;;15.80;99.90;;;;;;5059007;28;20214;-84
2021/08/27 11:40:19;;;;;;;3.23;2.80;;;15.50;99.90;;;;;;5061278;28;20194;-84
2021/08/27 11:42:46;;;;;;;5.83;3.47;;;15.20;99.90;;;;;;5059735;28;20183;-86
2021/08/27 11:45:17;;;;;;;5.80;3.27;;;14.90;99.90;;;;;;5060052;28;20230;-86
2021/08/27 11:47:50;;;;;;;4.97;3.40;;;14.80;99.90;;;;;;5059255;28;20210;-86
2021/08/27 11:50:27;;;;;;;4.77;3.07;;;14.80;99.90;;;;;;5057984;28;20202;-87
2021/08/27 11:52:58;;;;;;;5.00;3.10;;;14.90;99.90;;;;;;5057858;28;20196;-87
2021/08/27 11:55:27;;;;;;;5.53;3.40;;;15.20;99.90;;;;;;5058335;28;20193;-87
2021/08/27 11:57:53;;;;;;;5.00;3.33;;;15.50;99.90;;;;;;5058613;28;20210;-88
2021/08/27 12:00:40;;;;;;;4.63;3.23;;;15.60;99.90;;;;;;5056242;28;20633;-87
2021/08/27 12:03:08;;;;;;;3.57;3.13;;;15.80;99.90;;;;;;5056105;28;20530;-87
2021/08/27 12:05:35;;;;;;;3.97;2.30;;;16.00;99.90;;;;;;5059027;28;20257;-87
2021/08/27 12:08:06;;;;;;;4.17;1.77;;;16.00;99.90;;;;;;5057315;28;20201;-88
2021/08/27 12:10:33;;;;;;;3.47;2.17;;;15.90;99.90;;;;;;5057311;28;20659;-87
2021/08/27 12:13:00;;;;;;;5.00;2.33;;;16.20;99.90;;;;;;5057176;28;20186;-87
2021/08/27 12:15:37;;;;;;;6.00;2.20;;;16.90;99.90;;;;;;5058636;28;20659;-88
2021/08/27 12:18:05;;;;;;;3.47;2.93;;;16.90;99.90;;;;;;5057237;28;20234;-88
2021/08/27 12:20:34;;;;;;;3.90;2.60;;;16.70;99.90;;;;;;5057815;28;20187;-87
2021/08/27 12:23:06;;;;;;;3.27;2.80;;;17.10;99.90;;;;;;5058011;28;20596;-89
2021/08/27 12:25:39;;;;;;;5.67;3.23;;;17.30;99.90;;;;;;5057175;28;20177;-87
2021/08/27 12:28:06;;;;;;;3.63;3.00;;;17.50;99.90;;;;;;5057600;28;20359;-87
2021/08/27 12:30:32;;;;;;;7.93;2.97;;;17.20;99.90;;;;;;5057404;28;20193;-89
2021/08/27 12:32:58;;;;;;;3.53;3.03;;;16.90;99.90;;;;;;5057145;28;20184;-89
2021/08/27 12:35:32;;;;;;;4.03;3.10;;;16.60;99.90;;;;;;5059637;28;20175;-88
2021/08/27 12:37:59;;;;;;;4.73;3.33;;;16.40;99.90;;;;;;5058235;28;20220;-89
2021/08/27 12:40:27;;;;;;;4.50;3.23;;;16.40;99.90;;;;;;5056697;28;20198;-88
2021/08/27 12:42:58;;;;;;;3.60;2.97;;;16.40;99.90;;;;;;5057096;28;20179;-87
2021/08/27 12:45:24;;;;;;;4.17;2.97;;;16.40;99.90;;;;;;5057237;28;20175;-89
2021/08/27 12:47:52;;;;;;;4.00;3.60;;;16.50;99.90;;;;;;5056276;28;20212;-88
2021/08/27 12:50:18;;;;;;;8.43;3.67;;;16.80;99.90;;;;;;5056038;28;20197;-88
2021/08/27 12:53:04;;;;;;;5.80;3.80;;;16.80;99.90;;;;;;5055591;28;20182;-88
2021/08/27 12:55:32;;;;;;;4.93;3.60;;;16.50;99.90;;;;;;5056250;28;20659;-88
2021/08/27 12:57:58;;;;;;;6.10;3.70;;;16.30;99.90;;;;;;5057434;28;20209;-87